sensor_id;sensor_type;location;lat;lon;timestamp;P1;durP1;ratioP1;P2;durP2;ratioP2
57643;SDS011;43474;46.510;6.686;2023-02-03T00:01:27;3.08;;;1.02;;
57643;SDS011;43474;46.510;6.686;2023-02-03T00:03:53;5.43;;;1.40;;
57643;SDS011;43474;46.510;6.686;2023-02-03T00:06:18;2.50;;;1.75;;
57643;SDS011;43474;46.510;6.686;2023-02-03T00:08:44;6.93;;;2.13;;
57643;SDS011;43474;46.510;6.686;2023-02-03T00:11:09;3.65;;;1.42;;
57643;SDS011;43474;46.510;6.686;2023-02-03T00:13:35;3.33;;;1.42;;
57643;SDS011;43474;46.510;6.686;2023-02-03T00:16:01;2.90;;;1.42;;
57643;SDS011;43474;46.510;6.686;2023-02-03T00:18:27;4.38;;;1.55;;
57643;SDS011;43474;46.510;6.686;2023-02-03T00:20:52;3.92;;;1.63;;
57643;SDS011;43474;46.510;6.686;2023-02-03T00:23:18;4.40;;;1.23;;
57643;SDS011;43474;46.510;6.686;2023-02-03T00:25:44;10.00;;;1.50;;
57643;SDS011;43474;46.510;6.686;2023-02-03T00:28:09;5.18;;;1.75;;
57643;SDS011;43474;46.510;6.686;2023-02-03T00:30:35;3.03;;;1.80;;
57643;SDS011;43474;46.510;6.686;2023-02-03T00:33:03;4.43;;;1.30;;
57643;SDS011;43474;46.510;6.686;2023-02-03T00:35:29;7.65;;;1.58;;
57643;SDS011;43474;46.510;6.686;2023-02-03T00:37:56;3.70;;;1.58;;
57643;SDS011;43474;46.510;6.686;2023-02-03T00:40:22;6.72;;;1.60;;
57643;SDS011;43474;46.510;6.686;2023-02-03T00:42:50;2.80;;;1.42;;
57643;SDS011;43474;46.510;6.686;2023-02-03T00:45:16;3.38;;;1.30;;
57643;SDS011;43474;46.510;6.686;2023-02-03T00:47:42;3.58;;;1.45;;
57643;SDS011;43474;46.510;6.686;2023-02-03T00:50:07;2.20;;;1.30;;
57643;SDS011;43474;46.510;6.686;2023-02-03T00:52:34;2.85;;;1.23;;
57643;SDS011;43474;46.510;6.686;2023-02-03T00:55:00;3.00;;;1.35;;
57643;SDS011;43474;46.510;6.686;2023-02-03T00:57:25;1.70;;;1.30;;
57643;SDS011;43474;46.510;6.686;2023-02-03T00:59:51;4.25;;;1.65;;
57643;SDS011;43474;46.510;6.686;2023-02-03T01:02:16;4.93;;;1.35;;
57643;SDS011;43474;46.510;6.686;2023-02-03T01:04:42;4.43;;;1.30;;
57643;SDS011;43474;46.510;6.686;2023-02-03T01:07:08;2.65;;;1.23;;
57643;SDS011;43474;46.510;6.686;2023-02-03T01:09:34;2.85;;;1.27;;
57643;SDS011;43474;46.510;6.686;2023-02-03T01:12:01;5.88;;;1.40;;
57643;SDS011;43474;46.510;6.686;2023-02-03T01:14:27;4.25;;;1.13;;
57643;SDS011;43474;46.510;6.686;2023-02-03T01:16:53;4.75;;;1.20;;
57643;SDS011;43474;46.510;6.686;2023-02-03T01:19:19;2.67;;;1.30;;
57643;SDS011;43474;46.510;6.686;2023-02-03T01:21:45;2.72;;;1.40;;
57643;SDS011;43474;46.510;6.686;2023-02-03T01:24:10;3.40;;;1.30;;
57643;SDS011;43474;46.510;6.686;2023-02-03T01:26:36;2.90;;;1.35;;
57643;SDS011;43474;46.510;6.686;2023-02-03T01:29:02;3.15;;;1.55;;
57643;SDS011;43474;46.510;6.686;2023-02-03T01:31:29;3.60;;;1.33;;
57643;SDS011;43474;46.510;6.686;2023-02-03T01:34:01;4.53;;;1.60;;
57643;SDS011;43474;46.510;6.686;2023-02-03T01:36:28;5.63;;;1.50;;
57643;SDS011;43474;46.510;6.686;2023-02-03T01:38:55;4.40;;;1.52;;
57643;SDS011;43474;46.510;6.686;2023-02-03T01:41:23;4.90;;;2.10;;
57643;SDS011;43474;46.510;6.686;2023-02-03T01:43:54;3.20;;;1.90;;
57643;SDS011;43474;46.510;6.686;2023-02-03T01:49:19;4.15;;;1.80;;
57643;SDS011;43474;46.510;6.686;2023-02-03T01:51:49;4.88;;;1.67;;
57643;SDS011;43474;46.510;6.686;2023-02-03T01:54:18;4.68;;;1.52;;
57643;SDS011;43474;46.510;6.686;2023-02-03T01:57:00;7.32;;;1.52;;
57643;SDS011;43474;46.510;6.686;2023-02-03T01:59:27;3.53;;;1.85;;
57643;SDS011;43474;46.510;6.686;2023-02-03T02:01:55;1.90;;;1.38;;
57643;SDS011;43474;46.510;6.686;2023-02-03T02:04:23;3.83;;;1.45;;
57643;SDS011;43474;46.510;6.686;2023-02-03T02:06:54;5.40;;;1.55;;
57643;SDS011;43474;46.510;6.686;2023-02-03T02:09:20;5.90;;;1.75;;
57643;SDS011;43474;46.510;6.686;2023-02-03T02:11:46;3.78;;;1.42;;
57643;SDS011;43474;46.510;6.686;2023-02-03T02:14:11;6.03;;;1.85;;
57643;SDS011;43474;46.510;6.686;2023-02-03T02:19:41;3.58;;;1.83;;
57643;SDS011;43474;46.510;6.686;2023-02-03T02:22:32;4.78;;;1.90;;
57643;SDS011;43474;46.510;6.686;2023-02-03T02:42:20;5.53;;;1.88;;
57643;SDS011;43474;46.510;6.686;2023-02-03T02:44:57;5.45;;;2.00;;
57643;SDS011;43474;46.510;6.686;2023-02-03T02:47:29;7.35;;;2.03;;
57643;SDS011;43474;46.510;6.686;2023-02-03T02:52:35;3.67;;;2.00;;
57643;SDS011;43474;46.510;6.686;2023-02-03T02:55:15;4.80;;;2.38;;
57643;SDS011;43474;46.510;6.686;2023-02-03T02:57:42;7.47;;;2.40;;
57643;SDS011;43474;46.510;6.686;2023-02-03T03:00:11;5.85;;;2.05;;
57643;SDS011;43474;46.510;6.686;2023-02-03T03:02:37;3.40;;;2.00;;
57643;SDS011;43474;46.510;6.686;2023-02-03T03:05:06;7.20;;;2.33;;
57643;SDS011;43474;46.510;6.686;2023-02-03T03:07:36;5.43;;;2.20;;
57643;SDS011;43474;46.510;6.686;2023-02-03T03:10:09;5.10;;;2.70;;
57643;SDS011;43474;46.510;6.686;2023-02-03T03:12:39;4.93;;;2.40;;
57643;SDS011;43474;46.510;6.686;2023-02-03T03:15:16;4.72;;;2.20;;
57643;SDS011;43474;46.510;6.686;2023-02-03T03:17:50;3.83;;;2.55;;
57643;SDS011;43474;46.510;6.686;2023-02-03T03:20:26;6.90;;;2.58;;
57643;SDS011;43474;46.510;6.686;2023-02-03T03:22:56;7.22;;;2.10;;
57643;SDS011;43474;46.510;6.686;2023-02-03T03:25:29;3.83;;;2.05;;
57643;SDS011;43474;46.510;6.686;2023-02-03T03:28:01;6.20;;;2.40;;
57643;SDS011;43474;46.510;6.686;2023-02-03T03:30:31;8.70;;;2.65;;
57643;SDS011;43474;46.510;6.686;2023-02-03T03:32:59;8.25;;;2.72;;
57643;SDS011;43474;46.510;6.686;2023-02-03T03:35:36;4.05;;;2.47;;
57643;SDS011;43474;46.510;6.686;2023-02-03T03:38:31;5.88;;;2.17;;
57643;SDS011;43474;46.510;6.686;2023-02-03T03:41:05;3.58;;;2.20;;
57643;SDS011;43474;46.510;6.686;2023-02-03T03:43:37;5.40;;;2.35;;
57643;SDS011;43474;46.510;6.686;2023-02-03T03:46:08;3.50;;;2.35;;
57643;SDS011;43474;46.510;6.686;2023-02-03T03:48:39;4.32;;;2.60;;
57643;SDS011;43474;46.510;6.686;2023-02-03T03:51:08;5.65;;;2.78;;
57643;SDS011;43474;46.510;6.686;2023-02-03T03:53:38;4.97;;;2.50;;
57643;SDS011;43474;46.510;6.686;2023-02-03T03:56:08;5.55;;;2.40;;
57643;SDS011;43474;46.510;6.686;2023-02-03T03:58:38;5.07;;;2.17;;
57643;SDS011;43474;46.510;6.686;2023-02-03T04:01:09;6.20;;;3.10;;
57643;SDS011;43474;46.510;6.686;2023-02-03T04:06:08;4.88;;;1.90;;
57643;SDS011;43474;46.510;6.686;2023-02-03T04:08:34;5.18;;;2.50;;
57643;SDS011;43474;46.510;6.686;2023-02-03T04:11:00;1.98;;;1.42;;
57643;SDS011;43474;46.510;6.686;2023-02-03T04:13:25;4.50;;;2.38;;
57643;SDS011;43474;46.510;6.686;2023-02-03T04:15:51;3.55;;;2.00;;
57643;SDS011;43474;46.510;6.686;2023-02-03T04:18:16;5.22;;;1.95;;
57643;SDS011;43474;46.510;6.686;2023-02-03T04:20:42;4.53;;;2.05;;
57643;SDS011;43474;46.510;6.686;2023-02-03T04:23:08;2.28;;;1.40;;
57643;SDS011;43474;46.510;6.686;2023-02-03T04:25:34;1.70;;;1.17;;
57643;SDS011;43474;46.510;6.686;2023-02-03T04:28:00;2.55;;;1.50;;
57643;SDS011;43474;46.510;6.686;2023-02-03T04:30:26;4.15;;;1.42;;
57643;SDS011;43474;46.510;6.686;2023-02-03T04:32:51;4.07;;;1.30;;
57643;SDS011;43474;46.510;6.686;2023-02-03T04:35:18;2.50;;;1.40;;
57643;SDS011;43474;46.510;6.686;2023-02-03T04:37:43;3.88;;;1.35;;
57643;SDS011;43474;46.510;6.686;2023-02-03T04:40:09;1.95;;;1.33;;
57643;SDS011;43474;46.510;6.686;2023-02-03T04:42:36;4.85;;;1.23;;
57643;SDS011;43474;46.510;6.686;2023-02-03T04:45:03;6.35;;;1.75;;
57643;SDS011;43474;46.510;6.686;2023-02-03T04:47:29;7.25;;;2.10;;
57643;SDS011;43474;46.510;6.686;2023-02-03T04:49:55;5.32;;;1.80;;
57643;SDS011;43474;46.510;6.686;2023-02-03T04:52:20;4.32;;;2.10;;
57643;SDS011;43474;46.510;6.686;2023-02-03T04:54:46;3.40;;;2.10;;
57643;SDS011;43474;46.510;6.686;2023-02-03T04:57:11;6.30;;;2.30;;
57643;SDS011;43474;46.510;6.686;2023-02-03T04:59:37;2.03;;;1.70;;
57643;SDS011;43474;46.510;6.686;2023-02-03T05:02:03;4.70;;;1.60;;
57643;SDS011;43474;46.510;6.686;2023-02-03T05:04:29;4.55;;;1.65;;
57643;SDS011;43474;46.510;6.686;2023-02-03T05:06:55;8.77;;;1.85;;
57643;SDS011;43474;46.510;6.686;2023-02-03T05:09:22;1.60;;;1.30;;
57643;SDS011;43474;46.510;6.686;2023-02-03T05:11:48;2.30;;;1.45;;
57643;SDS011;43474;46.510;6.686;2023-02-03T05:14:14;2.25;;;1.60;;
57643;SDS011;43474;46.510;6.686;2023-02-03T05:16:39;2.80;;;1.20;;
57643;SDS011;43474;46.510;6.686;2023-02-03T05:19:05;4.35;;;1.65;;
57643;SDS011;43474;46.510;6.686;2023-02-03T05:21:31;4.72;;;1.80;;
57643;SDS011;43474;46.510;6.686;2023-02-03T05:23:56;4.82;;;1.70;;
57643;SDS011;43474;46.510;6.686;2023-02-03T05:26:22;3.97;;;1.60;;
57643;SDS011;43474;46.510;6.686;2023-02-03T05:28:48;3.20;;;1.23;;
57643;SDS011;43474;46.510;6.686;2023-02-03T05:31:13;5.40;;;1.48;;
57643;SDS011;43474;46.510;6.686;2023-02-03T05:33:39;6.65;;;1.48;;
57643;SDS011;43474;46.510;6.686;2023-02-03T05:36:04;3.08;;;1.75;;
57643;SDS011;43474;46.510;6.686;2023-02-03T05:38:30;4.35;;;2.05;;
57643;SDS011;43474;46.510;6.686;2023-02-03T05:40:56;2.50;;;1.40;;
57643;SDS011;43474;46.510;6.686;2023-02-03T05:43:40;3.28;;;1.30;;
57643;SDS011;43474;46.510;6.686;2023-02-03T05:46:06;2.03;;;1.45;;
57643;SDS011;43474;46.510;6.686;2023-02-03T05:48:32;2.58;;;1.30;;
57643;SDS011;43474;46.510;6.686;2023-02-03T05:50:58;2.58;;;1.20;;
57643;SDS011;43474;46.510;6.686;2023-02-03T05:53:24;5.20;;;1.48;;
57643;SDS011;43474;46.510;6.686;2023-02-03T05:55:50;3.55;;;1.60;;
57643;SDS011;43474;46.510;6.686;2023-02-03T05:58:16;3.20;;;1.48;;
57643;SDS011;43474;46.510;6.686;2023-02-03T06:00:41;3.40;;;1.65;;
57643;SDS011;43474;46.510;6.686;2023-02-03T06:03:07;5.18;;;1.85;;
57643;SDS011;43474;46.510;6.686;2023-02-03T06:05:33;3.58;;;1.60;;
57643;SDS011;43474;46.510;6.686;2023-02-03T06:07:59;6.80;;;1.63;;
57643;SDS011;43474;46.510;6.686;2023-02-03T06:10:25;6.50;;;1.90;;
57643;SDS011;43474;46.510;6.686;2023-02-03T06:12:51;3.33;;;2.05;;
57643;SDS011;43474;46.510;6.686;2023-02-03T06:15:17;5.30;;;1.80;;
57643;SDS011;43474;46.510;6.686;2023-02-03T06:17:43;6.40;;;1.80;;
57643;SDS011;43474;46.510;6.686;2023-02-03T06:20:10;6.82;;;1.95;;
57643;SDS011;43474;46.510;6.686;2023-02-03T06:22:37;2.80;;;1.52;;
57643;SDS011;43474;46.510;6.686;2023-02-03T06:25:03;7.63;;;1.90;;
57643;SDS011;43474;46.510;6.686;2023-02-03T06:27:29;2.92;;;1.60;;
57643;SDS011;43474;46.510;6.686;2023-02-03T06:29:54;4.45;;;1.30;;
57643;SDS011;43474;46.510;6.686;2023-02-03T06:32:20;5.30;;;1.85;;
57643;SDS011;43474;46.510;6.686;2023-02-03T06:34:46;5.20;;;1.67;;
57643;SDS011;43474;46.510;6.686;2023-02-03T06:37:11;4.38;;;1.50;;
57643;SDS011;43474;46.510;6.686;2023-02-03T06:39:37;4.25;;;1.23;;
57643;SDS011;43474;46.510;6.686;2023-02-03T06:42:03;6.05;;;1.38;;
57643;SDS011;43474;46.510;6.686;2023-02-03T06:44:28;6.43;;;2.00;;
57643;SDS011;43474;46.510;6.686;2023-02-03T06:46:54;6.43;;;1.60;;
57643;SDS011;43474;46.510;6.686;2023-02-03T06:49:20;3.97;;;2.08;;
57643;SDS011;43474;46.510;6.686;2023-02-03T06:51:46;5.38;;;1.52;;
57643;SDS011;43474;46.510;6.686;2023-02-03T06:54:12;6.78;;;1.88;;
57643;SDS011;43474;46.510;6.686;2023-02-03T06:56:38;4.00;;;1.83;;
57643;SDS011;43474;46.510;6.686;2023-02-03T06:59:03;3.75;;;1.42;;
57643;SDS011;43474;46.510;6.686;2023-02-03T07:01:29;3.65;;;1.60;;
57643;SDS011;43474;46.510;6.686;2023-02-03T07:03:55;4.40;;;1.90;;
57643;SDS011;43474;46.510;6.686;2023-02-03T07:06:23;3.08;;;1.58;;
57643;SDS011;43474;46.510;6.686;2023-02-03T07:08:53;6.90;;;1.40;;
57643;SDS011;43474;46.510;6.686;2023-02-03T07:11:20;8.20;;;1.40;;
57643;SDS011;43474;46.510;6.686;2023-02-03T07:13:45;7.60;;;2.17;;
57643;SDS011;43474;46.510;6.686;2023-02-03T07:16:11;2.67;;;1.88;;
57643;SDS011;43474;46.510;6.686;2023-02-03T07:18:37;2.55;;;1.40;;
57643;SDS011;43474;46.510;6.686;2023-02-03T07:21:03;5.30;;;1.70;;
57643;SDS011;43474;46.510;6.686;2023-02-03T07:23:30;4.13;;;1.67;;
57643;SDS011;43474;46.510;6.686;2023-02-03T07:25:59;8.85;;;1.98;;
57643;SDS011;43474;46.510;6.686;2023-02-03T07:28:29;1.70;;;1.40;;
57643;SDS011;43474;46.510;6.686;2023-02-03T07:30:55;9.95;;;1.95;;
57643;SDS011;43474;46.510;6.686;2023-02-03T07:33:21;3.28;;;1.42;;
57643;SDS011;43474;46.510;6.686;2023-02-03T07:35:51;6.80;;;1.70;;
57643;SDS011;43474;46.510;6.686;2023-02-03T07:38:17;7.07;;;1.85;;
57643;SDS011;43474;46.510;6.686;2023-02-03T07:40:43;1.77;;;1.40;;
57643;SDS011;43474;46.510;6.686;2023-02-03T07:43:08;2.40;;;1.45;;
57643;SDS011;43474;46.510;6.686;2023-02-03T07:45:34;4.05;;;1.60;;
57643;SDS011;43474;46.510;6.686;2023-02-03T07:48:00;5.10;;;2.00;;
57643;SDS011;43474;46.510;6.686;2023-02-03T07:50:25;4.03;;;1.98;;
57643;SDS011;43474;46.510;6.686;2023-02-03T07:52:51;3.97;;;1.98;;
57643;SDS011;43474;46.510;6.686;2023-02-03T07:55:16;5.43;;;1.85;;
57643;SDS011;43474;46.510;6.686;2023-02-03T07:57:42;6.05;;;1.88;;
57643;SDS011;43474;46.510;6.686;2023-02-03T08:00:13;4.57;;;1.90;;
57643;SDS011;43474;46.510;6.686;2023-02-03T08:02:43;5.72;;;2.28;;
57643;SDS011;43474;46.510;6.686;2023-02-03T08:05:09;5.20;;;1.92;;
57643;SDS011;43474;46.510;6.686;2023-02-03T08:07:36;4.30;;;2.10;;
57643;SDS011;43474;46.510;6.686;2023-02-03T08:10:02;9.50;;;2.95;;
57643;SDS011;43474;46.510;6.686;2023-02-03T08:12:28;11.35;;;2.45;;
57643;SDS011;43474;46.510;6.686;2023-02-03T08:14:54;4.43;;;2.08;;
57643;SDS011;43474;46.510;6.686;2023-02-03T08:17:19;5.53;;;2.13;;
57643;SDS011;43474;46.510;6.686;2023-02-03T08:19:45;5.13;;;2.10;;
57643;SDS011;43474;46.510;6.686;2023-02-03T08:22:10;3.05;;;1.60;;
57643;SDS011;43474;46.510;6.686;2023-02-03T08:24:40;4.15;;;2.08;;
57643;SDS011;43474;46.510;6.686;2023-02-03T08:27:14;5.65;;;1.80;;
57643;SDS011;43474;46.510;6.686;2023-02-03T08:29:42;4.45;;;1.92;;
57643;SDS011;43474;46.510;6.686;2023-02-03T08:32:08;6.65;;;2.22;;
57643;SDS011;43474;46.510;6.686;2023-02-03T08:34:35;4.45;;;2.08;;
57643;SDS011;43474;46.510;6.686;2023-02-03T08:37:01;3.55;;;2.22;;
57643;SDS011;43474;46.510;6.686;2023-02-03T08:39:27;4.63;;;2.05;;
57643;SDS011;43474;46.510;6.686;2023-02-03T08:41:52;4.00;;;1.63;;
57643;SDS011;43474;46.510;6.686;2023-02-03T08:44:18;3.08;;;2.00;;
57643;SDS011;43474;46.510;6.686;2023-02-03T08:46:44;4.88;;;1.90;;
57643;SDS011;43474;46.510;6.686;2023-02-03T08:49:13;4.05;;;2.67;;
57643;SDS011;43474;46.510;6.686;2023-02-03T08:51:38;3.80;;;2.28;;
57643;SDS011;43474;46.510;6.686;2023-02-03T08:54:04;8.73;;;2.20;;
57643;SDS011;43474;46.510;6.686;2023-02-03T08:56:30;4.63;;;1.90;;
57643;SDS011;43474;46.510;6.686;2023-02-03T08:58:56;6.30;;;2.28;;
57643;SDS011;43474;46.510;6.686;2023-02-03T09:01:21;9.45;;;1.92;;
57643;SDS011;43474;46.510;6.686;2023-02-03T09:03:47;3.17;;;2.03;;
57643;SDS011;43474;46.510;6.686;2023-02-03T09:06:12;4.63;;;2.08;;
57643;SDS011;43474;46.510;6.686;2023-02-03T09:08:41;8.05;;;2.13;;
57643;SDS011;43474;46.510;6.686;2023-02-03T09:11:12;10.43;;;2.63;;
57643;SDS011;43474;46.510;6.686;2023-02-03T09:13:39;3.55;;;2.00;;
57643;SDS011;43474;46.510;6.686;2023-02-03T09:16:05;7.30;;;2.10;;
57643;SDS011;43474;46.510;6.686;2023-02-03T09:18:32;4.85;;;2.22;;
57643;SDS011;43474;46.510;6.686;2023-02-03T09:21:01;3.10;;;1.95;;
57643;SDS011;43474;46.510;6.686;2023-02-03T09:23:28;3.05;;;2.03;;
57643;SDS011;43474;46.510;6.686;2023-02-03T09:25:54;4.82;;;2.45;;
57643;SDS011;43474;46.510;6.686;2023-02-03T09:28:19;4.95;;;2.05;;
57643;SDS011;43474;46.510;6.686;2023-02-03T09:30:45;3.35;;;1.95;;
57643;SDS011;43474;46.510;6.686;2023-02-03T09:33:11;7.22;;;1.88;;
57643;SDS011;43474;46.510;6.686;2023-02-03T09:35:37;3.47;;;1.98;;
57643;SDS011;43474;46.510;6.686;2023-02-03T09:38:03;5.13;;;2.17;;
57643;SDS011;43474;46.510;6.686;2023-02-03T09:40:33;4.05;;;1.95;;
57643;SDS011;43474;46.510;6.686;2023-02-03T09:43:03;5.40;;;2.30;;
57643;SDS011;43474;46.510;6.686;2023-02-03T09:45:31;4.32;;;1.77;;
57643;SDS011;43474;46.510;6.686;2023-02-03T09:47:59;3.65;;;2.00;;
57643;SDS011;43474;46.510;6.686;2023-02-03T09:50:36;4.13;;;1.80;;
57643;SDS011;43474;46.510;6.686;2023-02-03T09:53:06;3.97;;;1.98;;
57643;SDS011;43474;46.510;6.686;2023-02-03T09:55:45;6.63;;;2.00;;
57643;SDS011;43474;46.510;6.686;2023-02-03T09:58:16;6.82;;;1.77;;
57643;SDS011;43474;46.510;6.686;2023-02-03T10:00:58;7.30;;;1.70;;
57643;SDS011;43474;46.510;6.686;2023-02-03T10:17:11;4.25;;;2.10;;
57643;SDS011;43474;46.510;6.686;2023-02-03T10:20:15;6.38;;;1.80;;
57643;SDS011;43474;46.510;6.686;2023-02-03T10:22:55;3.85;;;1.65;;
57643;SDS011;43474;46.510;6.686;2023-02-03T10:25:30;9.32;;;2.17;;
57643;SDS011;43474;46.510;6.686;2023-02-03T10:28:05;5.93;;;2.35;;
57643;SDS011;43474;46.510;6.686;2023-02-03T10:30:40;3.10;;;2.00;;
57643;SDS011;43474;46.510;6.686;2023-02-03T10:33:12;2.40;;;1.80;;
57643;SDS011;43474;46.510;6.686;2023-02-03T10:38:55;4.43;;;2.40;;
57643;SDS011;43474;46.510;6.686;2023-02-03T10:41:28;8.15;;;2.40;;
57643;SDS011;43474;46.510;6.686;2023-02-03T10:43:55;4.75;;;2.38;;
57643;SDS011;43474;46.510;6.686;2023-02-03T10:46:29;3.70;;;2.00;;
57643;SDS011;43474;46.510;6.686;2023-02-03T10:49:00;3.92;;;1.88;;
57643;SDS011;43474;46.510;6.686;2023-02-03T10:51:27;5.22;;;2.38;;
57643;SDS011;43474;46.510;6.686;2023-02-03T10:53:55;4.20;;;2.58;;
57643;SDS011;43474;46.510;6.686;2023-02-03T10:56:31;3.67;;;2.10;;
57643;SDS011;43474;46.510;6.686;2023-02-03T10:59:01;6.00;;;2.20;;
57643;SDS011;43474;46.510;6.686;2023-02-03T11:04:06;5.38;;;2.25;;
57643;SDS011;43474;46.510;6.686;2023-02-03T11:06:58;8.05;;;2.33;;
57643;SDS011;43474;46.510;6.686;2023-02-03T11:12:06;5.50;;;2.47;;
57643;SDS011;43474;46.510;6.686;2023-02-03T11:14:40;6.22;;;2.53;;
57643;SDS011;43474;46.510;6.686;2023-02-03T11:17:32;5.20;;;2.42;;
57643;SDS011;43474;46.510;6.686;2023-02-03T11:20:21;6.80;;;2.30;;
57643;SDS011;43474;46.510;6.686;2023-02-03T11:22:48;6.45;;;2.40;;
57643;SDS011;43474;46.510;6.686;2023-02-03T11:25:18;6.13;;;2.13;;
57643;SDS011;43474;46.510;6.686;2023-02-03T11:27:48;3.75;;;2.70;;
57643;SDS011;43474;46.510;6.686;2023-02-03T11:30:15;5.88;;;2.50;;
57643;SDS011;43474;46.510;6.686;2023-02-03T11:32:47;5.25;;;2.55;;
57643;SDS011;43474;46.510;6.686;2023-02-03T11:35:16;4.95;;;2.25;;
57643;SDS011;43474;46.510;6.686;2023-02-03T11:37:46;5.45;;;2.33;;
57643;SDS011;43474;46.510;6.686;2023-02-03T11:42:45;5.85;;;2.40;;
57643;SDS011;43474;46.510;6.686;2023-02-03T11:45:37;2.80;;;1.73;;
57643;SDS011;43474;46.510;6.686;2023-02-03T11:50:52;3.63;;;2.65;;
57643;SDS011;43474;46.510;6.686;2023-02-03T11:56:12;3.55;;;2.45;;
57643;SDS011;43474;46.510;6.686;2023-02-03T12:02:01;6.32;;;2.33;;
57643;SDS011;43474;46.510;6.686;2023-02-03T12:04:58;5.60;;;2.40;;
57643;SDS011;43474;46.510;6.686;2023-02-03T12:07:50;7.93;;;2.60;;
57643;SDS011;43474;46.510;6.686;2023-02-03T12:13:37;4.28;;;2.38;;
57643;SDS011;43474;46.510;6.686;2023-02-03T12:22:15;4.07;;;1.95;;
57643;SDS011;43474;46.510;6.686;2023-02-03T12:30:16;6.25;;;2.55;;
57643;SDS011;43474;46.510;6.686;2023-02-03T12:36:07;3.67;;;2.17;;
57643;SDS011;43474;46.510;6.686;2023-02-03T12:38:58;3.55;;;1.40;;
57643;SDS011;43474;46.510;6.686;2023-02-03T12:41:29;1.90;;;1.70;;
57643;SDS011;43474;46.510;6.686;2023-02-03T12:44:03;2.45;;;1.85;;
57643;SDS011;43474;46.510;6.686;2023-02-03T12:46:36;5.15;;;1.88;;
57643;SDS011;43474;46.510;6.686;2023-02-03T12:49:17;4.68;;;1.77;;
57643;SDS011;43474;46.510;6.686;2023-02-03T12:51:48;5.80;;;1.70;;
57643;SDS011;43474;46.510;6.686;2023-02-03T12:56:57;2.70;;;2.05;;
57643;SDS011;43474;46.510;6.686;2023-02-03T12:59:36;3.00;;;1.95;;
57643;SDS011;43474;46.510;6.686;2023-02-03T13:02:11;2.85;;;1.52;;
57643;SDS011;43474;46.510;6.686;2023-02-03T13:07:20;4.13;;;2.30;;
57643;SDS011;43474;46.510;6.686;2023-02-03T13:09:58;4.57;;;2.20;;
57643;SDS011;43474;46.510;6.686;2023-02-03T13:12:49;3.85;;;2.15;;
57643;SDS011;43474;46.510;6.686;2023-02-03T13:20:44;4.80;;;2.33;;
57643;SDS011;43474;46.510;6.686;2023-02-03T13:23:11;2.70;;;2.40;;
57643;SDS011;43474;46.510;6.686;2023-02-03T13:25:42;5.50;;;2.22;;
57643;SDS011;43474;46.510;6.686;2023-02-03T13:28:27;5.80;;;2.78;;
57643;SDS011;43474;46.510;6.686;2023-02-03T13:39:23;4.78;;;2.40;;
57643;SDS011;43474;46.510;6.686;2023-02-03T13:44:46;3.75;;;2.30;;
57643;SDS011;43474;46.510;6.686;2023-02-03T13:47:17;5.27;;;2.43;;
57643;SDS011;43474;46.510;6.686;2023-02-03T13:49:56;5.03;;;1.98;;
57643;SDS011;43474;46.510;6.686;2023-02-03T13:52:31;3.13;;;2.45;;
57643;SDS011;43474;46.510;6.686;2023-02-03T13:54:57;3.88;;;2.75;;
57643;SDS011;43474;46.510;6.686;2023-02-03T13:57:34;4.55;;;2.63;;
57643;SDS011;43474;46.510;6.686;2023-02-03T14:00:06;6.07;;;2.80;;
57643;SDS011;43474;46.510;6.686;2023-02-03T14:03:13;7.80;;;2.72;;
57643;SDS011;43474;46.510;6.686;2023-02-03T14:05:45;5.75;;;2.90;;
57643;SDS011;43474;46.510;6.686;2023-02-03T14:19:04;4.20;;;1.83;;
57643;SDS011;43474;46.510;6.686;2023-02-03T14:21:42;5.03;;;1.98;;
57643;SDS011;43474;46.510;6.686;2023-02-03T14:24:13;2.20;;;1.52;;
57643;SDS011;43474;46.510;6.686;2023-02-03T14:26:47;3.50;;;2.00;;
57643;SDS011;43474;46.510;6.686;2023-02-03T14:29:49;4.97;;;2.38;;
57643;SDS011;43474;46.510;6.686;2023-02-03T14:32:08;4.60;;;2.72;;
57643;SDS011;43474;46.510;6.686;2023-02-03T14:34:36;4.05;;;2.47;;
57643;SDS011;43474;46.510;6.686;2023-02-03T14:39:58;4.85;;;2.20;;
57643;SDS011;43474;46.510;6.686;2023-02-03T14:45:24;2.63;;;1.80;;
57643;SDS011;43474;46.510;6.686;2023-02-03T14:48:04;4.35;;;2.00;;
57643;SDS011;43474;46.510;6.686;2023-02-03T14:53:42;6.78;;;2.60;;
57643;SDS011;43474;46.510;6.686;2023-02-03T14:59:28;4.03;;;3.03;;
57643;SDS011;43474;46.510;6.686;2023-02-03T15:04:26;6.93;;;2.70;;
57643;SDS011;43474;46.510;6.686;2023-02-03T15:06:52;3.83;;;2.28;;
57643;SDS011;43474;46.510;6.686;2023-02-03T15:09:29;3.80;;;2.20;;
57643;SDS011;43474;46.510;6.686;2023-02-03T15:11:55;3.60;;;1.33;;
57643;SDS011;43474;46.510;6.686;2023-02-03T15:14:22;2.03;;;1.02;;
57643;SDS011;43474;46.510;6.686;2023-02-03T15:16:59;2.83;;;1.13;;
57643;SDS011;43474;46.510;6.686;2023-02-03T15:19:38;3.65;;;1.33;;
57643;SDS011;43474;46.510;6.686;2023-02-03T15:22:26;3.72;;;1.45;;
57643;SDS011;43474;46.510;6.686;2023-02-03T15:24:54;3.35;;;1.38;;
57643;SDS011;43474;46.510;6.686;2023-02-03T15:27:29;4.20;;;1.50;;
57643;SDS011;43474;46.510;6.686;2023-02-03T15:29:56;2.55;;;1.40;;
57643;SDS011;43474;46.510;6.686;2023-02-03T15:32:25;6.78;;;2.47;;
57643;SDS011;43474;46.510;6.686;2023-02-03T15:34:56;3.25;;;2.00;;
57643;SDS011;43474;46.510;6.686;2023-02-03T15:37:29;5.15;;;1.70;;
57643;SDS011;43474;46.510;6.686;2023-02-03T15:40:04;5.13;;;2.00;;
57643;SDS011;43474;46.510;6.686;2023-02-03T15:45:08;4.40;;;2.33;;
57643;SDS011;43474;46.510;6.686;2023-02-03T15:47:56;5.80;;;1.67;;
57643;SDS011;43474;46.510;6.686;2023-02-03T15:55:51;4.15;;;2.10;;
57643;SDS011;43474;46.510;6.686;2023-02-03T15:58:28;6.13;;;1.73;;
57643;SDS011;43474;46.510;6.686;2023-02-03T16:00:58;4.93;;;1.98;;
57643;SDS011;43474;46.510;6.686;2023-02-03T16:03:33;5.93;;;2.47;;
57643;SDS011;43474;46.510;6.686;2023-02-03T16:08:35;4.55;;;2.03;;
57643;SDS011;43474;46.510;6.686;2023-02-03T16:13:56;3.97;;;2.30;;
57643;SDS011;43474;46.510;6.686;2023-02-03T16:18:56;4.72;;;2.40;;
57643;SDS011;43474;46.510;6.686;2023-02-03T16:23:56;6.32;;;2.10;;
57643;SDS011;43474;46.510;6.686;2023-02-03T16:26:23;5.22;;;2.28;;
57643;SDS011;43474;46.510;6.686;2023-02-03T16:31:46;8.30;;;2.40;;
57643;SDS011;43474;46.510;6.686;2023-02-03T16:34:33;4.72;;;2.22;;
57643;SDS011;43474;46.510;6.686;2023-02-03T16:37:27;5.82;;;2.40;;
57643;SDS011;43474;46.510;6.686;2023-02-03T16:40:17;9.40;;;3.08;;
57643;SDS011;43474;46.510;6.686;2023-02-03T16:43:04;7.80;;;3.47;;
57643;SDS011;43474;46.510;6.686;2023-02-03T16:45:54;8.98;;;3.92;;
57643;SDS011;43474;46.510;6.686;2023-02-03T16:48:39;10.60;;;5.68;;
57643;SDS011;43474;46.510;6.686;2023-02-03T16:51:24;13.48;;;5.55;;
57643;SDS011;43474;46.510;6.686;2023-02-03T16:53:50;12.75;;;6.15;;
57643;SDS011;43474;46.510;6.686;2023-02-03T16:56:16;7.88;;;3.65;;
57643;SDS011;43474;46.510;6.686;2023-02-03T16:58:43;6.72;;;3.13;;
57643;SDS011;43474;46.510;6.686;2023-02-03T17:01:09;7.28;;;3.65;;
57643;SDS011;43474;46.510;6.686;2023-02-03T17:03:36;4.35;;;2.67;;
57643;SDS011;43474;46.510;6.686;2023-02-03T17:06:03;4.15;;;2.03;;
57643;SDS011;43474;46.510;6.686;2023-02-03T17:08:30;6.97;;;3.50;;
57643;SDS011;43474;46.510;6.686;2023-02-03T17:11:01;11.88;;;3.50;;
57643;SDS011;43474;46.510;6.686;2023-02-03T17:13:31;10.52;;;4.90;;
57643;SDS011;43474;46.510;6.686;2023-02-03T17:15:57;17.05;;;9.13;;
57643;SDS011;43474;46.510;6.686;2023-02-03T17:18:22;14.00;;;7.00;;
57643;SDS011;43474;46.510;6.686;2023-02-03T17:20:48;21.38;;;9.48;;
57643;SDS011;43474;46.510;6.686;2023-02-03T17:23:14;14.35;;;6.97;;
57643;SDS011;43474;46.510;6.686;2023-02-03T17:25:44;14.23;;;6.13;;
57643;SDS011;43474;46.510;6.686;2023-02-03T17:28:11;10.77;;;5.82;;
57643;SDS011;43474;46.510;6.686;2023-02-03T17:30:38;13.32;;;5.13;;
57643;SDS011;43474;46.510;6.686;2023-02-03T17:33:04;9.80;;;4.95;;